Time;durP1;ratioP1;P1;durP2;ratioP2;P2;SDS_P1;SDS_P2;PMS_P1;PMS_P2;Temp;Humidity;BMP_temperature;BMP_pressure;BME280_temperature;BME280_humidity;BME280_pressure;Samples;Min_cycle;Max_cycle;Signal;HPM_P1;HPM_P2
2023/07/03 00:03:27;;;;;;;7.50;2.30;;;;;;;-147.53;100.00;57128.34;10533569;28;20048;-81
2023/07/03 00:08:30;;;;;;;7.40;1.90;;;;;;;-147.53;100.00;57128.34;10560242;28;20040;-80
2023/07/03 00:13:31;;;;;;;10.98;1.92;;;;;;;-147.53;100.00;57128.34;10569014;28;20048;-81
2023/07/03 00:18:34;;;;;;;8.63;2.17;;;;;;;-147.53;100.00;57128.34;10530990;28;20610;-83
2023/07/03 00:23:35;;;;;;;9.18;2.13;;;;;;;-147.53;100.00;57128.34;10521691;28;20044;-82
2023/07/03 00:28:37;;;;;;;6.78;2.00;;;;;;;-147.53;100.00;57128.34;10513225;28;20505;-82
2023/07/03 00:33:39;;;;;;;6.47;1.85;;;;;;;-147.53;100.00;57128.34;10521362;28;20036;-83
2023/07/03 00:38:40;;;;;;;9.00;2.50;;;;;;;-147.53;100.00;57128.34;10520952;28;20663;-82
2023/07/03 00:43:42;;;;;;;5.05;1.58;;;;;;;-147.53;100.00;57128.34;10502536;28;20048;-82
2023/07/03 00:48:45;;;;;;;6.88;2.22;;;;;;;-147.53;100.00;57128.34;10520971;28;20185;-82
2023/07/03 00:53:47;;;;;;;5.95;2.15;;;;;;;-147.53;100.00;57128.34;10537147;28;20506;-82
2023/07/03 00:58:49;;;;;;;5.63;2.42;;;;;;;-147.53;100.00;57128.34;10520372;28;20147;-83
2023/07/03 01:04:00;;;;;;;4.65;1.98;;;;;;;-147.53;100.00;57128.34;10502205;28;20711;-83
2023/07/03 01:09:02;;;;;;;11.60;2.30;;;;;;;-147.53;100.00;57128.34;10520641;28;20048;-80
2023/07/03 01:14:07;;;;;;;10.27;2.85;;;;;;;-147.53;100.00;57128.34;10502423;28;20045;-83
2023/07/03 01:19:18;;;;;;;7.57;2.28;;;;;;;-147.53;100.00;57128.34;10517037;28;20072;-83
2023/07/03 01:24:33;;;;;;;6.85;2.13;;;;;;;-147.53;100.00;57128.34;10501142;28;20052;-83
2023/07/03 01:29:37;;;;;;;7.90;2.35;;;;;;;-147.53;100.00;57128.34;10497180;28;20457;-81
2023/07/03 01:34:45;;;;;;;8.57;2.05;;;;;;;-147.53;100.00;57128.34;10521085;28;20478;-82
2023/07/03 01:39:49;;;;;;;6.75;2.50;;;;;;;-147.53;100.00;57128.34;10521283;28;20052;-83
2023/07/03 01:44:51;;;;;;;9.15;2.33;;;;;;;-147.53;100.00;57128.34;10503475;28;20047;-82
2023/07/03 01:49:52;;;;;;;10.13;2.70;;;;;;;-147.53;100.00;57128.34;10521534;28;20517;-82
2023/07/03 01:55:02;;;;;;;9.25;2.28;;;;;;;-147.53;100.00;57128.34;10502883;28;20047;-81
2023/07/03 02:00:06;;;;;;;8.88;2.67;;;;;;;-147.53;100.00;57128.34;10503860;28;20134;-83
2023/07/03 02:05:22;;;;;;;12.27;2.55;;;;;;;-147.53;100.00;57128.34;10493919;28;20052;-82
2023/07/03 02:10:24;;;;;;;12.52;3.08;;;;;;;-147.53;100.00;57128.34;10509588;28;20045;-83
2023/07/03 02:15:26;;;;;;;15.15;2.22;;;;;;;-147.53;100.00;57128.34;10501145;28;20072;-83
2023/07/03 02:20:28;;;;;;;13.25;2.40;;;;;;;-147.53;100.00;57128.34;10492060;28;20098;-82
2023/07/03 02:25:31;;;;;;;6.07;2.28;;;;;;;-147.53;100.00;57128.34;10504150;28;20139;-83
2023/07/03 02:30:32;;;;;;;11.68;2.60;;;;;;;-147.53;100.00;57128.34;10506321;28;20116;-82
2023/07/03 02:35:35;;;;;;;21.63;3.45;;;;;;;-147.53;100.00;57128.34;10522162;28;20136;-82
2023/07/03 02:40:37;;;;;;;6.95;2.53;;;;;;;-147.53;100.00;57128.34;10523250;28;20510;-81
2023/07/03 02:45:41;;;;;;;11.00;2.33;;;;;;;-147.53;100.00;57128.34;10522045;28;20040;-82
2023/07/03 02:50:45;;;;;;;7.63;2.40;;;;;;;-147.53;100.00;57128.34;10537007;28;20048;-82
2023/07/03 02:55:50;;;;;;;6.68;2.13;;;;;;;-147.53;100.00;57128.34;10496839;28;20098;-83
2023/07/03 03:00:54;;;;;;;10.25;3.63;;;;;;;-147.53;100.00;57128.34;10523754;28;20074;-82
2023/07/03 03:05:56;;;;;;;9.18;2.47;;;;;;;-147.53;100.00;57128.34;10505379;28;20063;-82
2023/07/03 03:11:00;;;;;;;8.82;2.38;;;;;;;-147.53;100.00;57128.34;10508193;28;20047;-83
2023/07/03 03:16:02;;;;;;;10.43;2.75;;;;;;;-147.53;100.00;57128.34;10533860;28;20044;-81
2023/07/03 03:21:03;;;;;;;9.82;2.58;;;;;;;-147.53;100.00;57128.34;10513748;28;20055;-83
2023/07/03 03:26:06;;;;;;;8.52;2.40;;;;;;;-147.53;100.00;57128.34;10515636;28;20051;-81
2023/07/03 03:31:08;;;;;;;10.00;2.53;;;;;;;-147.53;100.00;57128.34;10534663;28;20044;-83
2023/07/03 03:36:16;;;;;;;12.60;2.42;;;;;;;-147.53;100.00;57128.34;10502222;28;20502;-82
2023/07/03 03:41:18;;;;;;;8.93;2.47;;;;;;;-147.53;100.00;57128.34;10510434;28;20119;-82
2023/07/03 03:46:21;;;;;;;12.98;2.65;;;;;;;-147.53;100.00;57128.34;10504450;28;20081;-83
2023/07/03 03:51:23;;;;;;;9.50;2.13;;;;;;;-147.53;100.00;57128.34;10513526;28;20608;-82
2023/07/03 03:56:25;;;;;;;16.67;2.60;;;;;;;-147.53;100.00;57128.34;10508075;28;20055;-82
2023/07/03 04:01:27;;;;;;;8.02;2.28;;;;;;;-147.53;100.00;57128.34;10511264;28;20044;-83
2023/07/03 04:06:29;;;;;;;9.75;2.10;;;;;;;-147.53;100.00;57128.34;10490870;28;20041;-82
2023/07/03 04:11:31;;;;;;;7.00;2.05;;;;;;;-147.53;100.00;57128.34;10472167;28;20090;-82
2023/07/03 04:16:33;;;;;;;9.40;2.97;;;;;;;-147.53;100.00;57128.34;10473231;28;20055;-82
2023/07/03 04:21:35;;;;;;;9.55;2.60;;;;;;;-147.53;100.00;57128.34;10497457;28;20048;-81
2023/07/03 04:26:38;;;;;;;17.10;3.20;;;;;;;-147.53;100.00;57128.34;10486734;28;20086;-82
2023/07/03 04:31:40;;;;;;;12.20;2.15;;;;;;;-147.53;100.00;57128.34;10476882;28;20553;-81
2023/07/03 04:36:42;;;;;;;10.02;2.28;;;;;;;-147.53;100.00;57128.34;10491313;28;20048;-83
2023/07/03 04:41:44;;;;;;;12.65;2.20;;;;;;;-147.53;100.00;57128.34;10474315;28;20048;-81
2023/07/03 04:46:45;;;;;;;13.30;2.30;;;;;;;-147.53;100.00;57128.34;10489407;28;20071;-82
2023/07/03 04:51:51;;;;;;;6.05;2.20;;;;;;;-147.53;100.00;57128.34;10475754;28;20052;-82
2023/07/03 04:56:54;;;;;;;6.90;2.20;;;;;;;-147.53;100.00;57128.34;10470671;28;20827;-82
2023/07/03 05:01:56;;;;;;;5.82;1.60;;;;;;;-147.53;100.00;57128.34;10472128;28;20467;-82
2023/07/03 05:06:58;;;;;;;7.53;1.55;;;;;;;-147.53;100.00;57128.34;10489362;28;20045;-83
2023/07/03 05:12:00;;;;;;;7.10;1.60;;;;;;;-147.53;100.00;57128.34;10488770;28;20048;-82
2023/07/03 05:17:02;;;;;;;3.53;1.58;;;;;;;-147.53;100.00;57128.34;10486335;28;20128;-82
2023/07/03 05:22:04;;;;;;;10.75;1.98;;;;;;;-147.53;100.00;57128.34;10473561;28;20082;-83
2023/07/03 05:27:06;;;;;;;6.20;1.80;;;;;;;-147.53;100.00;57128.34;10486458;28;20131;-83
2023/07/03 05:32:08;;;;;;;9.52;2.03;;;;;;;-147.53;100.00;57128.34;10486156;28;20057;-83
2023/07/03 05:37:09;;;;;;;11.05;2.30;;;;;;;-147.53;100.00;57128.34;10485620;28;20137;-83
2023/07/03 05:42:12;;;;;;;8.57;2.58;;;;;;;-147.53;100.00;57128.34;10489588;28;20044;-83
2023/07/03 05:47:15;;;;;;;6.25;1.90;;;;;;;-147.53;100.00;57128.34;10487494;28;20079;-83
2023/07/03 05:52:17;;;;;;;8.07;2.35;;;;;;;-147.53;100.00;57128.34;10490605;28;20131;-83
2023/07/03 05:57:20;;;;;;;8.43;2.05;;;;;;;-147.53;100.00;57128.34;10469825;28;20076;-83
2023/07/03 06:02:21;;;;;;;5.55;1.52;;;;;;;-147.53;100.00;57128.34;10488157;28;20045;-82
2023/07/03 06:07:23;;;;;;;8.73;2.05;;;;;;;-147.53;100.00;57128.34;10473105;28;20587;-83
2023/07/03 06:12:29;;;;;;;11.45;2.05;;;;;;;-147.53;100.00;57128.34;10486519;28;20097;-82
2023/07/03 06:17:31;;;;;;;8.70;2.10;;;;;;;-147.53;100.00;57128.34;10487550;28;20123;-83
2023/07/03 06:22:33;;;;;;;7.13;2.00;;;;;;;-147.53;100.00;57128.34;10501396;28;20052;-82
2023/07/03 06:27:34;;;;;;;8.93;2.45;;;;;;;-147.53;100.00;57128.34;10472645;28;20411;-82
2023/07/03 06:32:37;;;;;;;3.65;1.73;;;;;;;-147.53;100.00;57128.34;10491009;28;20535;-81
2023/07/03 06:37:38;;;;;;;12.63;2.30;;;;;;;-147.53;100.00;57128.34;10491771;28;20040;-82
2023/07/03 06:42:40;;;;;;;5.28;1.63;;;;;;;-147.53;100.00;57128.34;10478629;28;20078;-82
2023/07/03 06:47:48;;;;;;;4.60;1.40;;;;;;;-147.53;100.00;57128.34;10466722;28;20040;-82
2023/07/03 06:52:49;;;;;;;4.43;1.25;;;;;;;-147.53;100.00;57128.34;10494472;28;20523;-80
2023/07/03 06:57:51;;;;;;;9.27;1.90;;;;;;;-147.53;100.00;57128.34;10506409;28;20068;-82
2023/07/03 07:02:53;;;;;;;12.05;1.50;;;;;;;-147.53;100.00;57128.34;10506549;28;20556;-83
2023/07/03 07:07:55;;;;;;;9.25;2.20;;;;;;;-147.53;100.00;57128.34;10488631;28;20074;-83
2023/07/03 07:12:56;;;;;;;5.65;1.30;;;;;;;18.48;83.76;100111.41;10510547;28;20044;-81
2023/07/03 07:17:58;;;;;;;4.03;1.10;;;;;;;-147.53;100.00;57128.34;10510459;28;20044;-81
2023/07/03 07:22:59;;;;;;;7.70;1.50;;;;;;;-147.53;100.00;57128.34;10515014;27;20550;-81
2023/07/03 07:28:02;;;;;;;6.07;1.33;;;;;;;-147.53;100.00;57128.34;10518492;28;20465;-82
2023/07/03 07:33:03;;;;;;;7.97;1.40;;;;;;;-147.53;100.00;57128.34;10500756;27;20044;-80
2023/07/03 07:38:05;;;;;;;9.15;1.80;;;;;;;-147.53;100.00;57128.34;10507810;28;20052;-81
2023/07/03 07:43:07;;;;;;;6.28;1.48;;;;;;;-147.53;100.00;57128.34;10493397;27;20044;-82
2023/07/03 07:48:08;;;;;;;6.45;1.42;;;;;;;-147.53;100.00;57128.34;10511150;28;20102;-80
2023/07/03 07:53:10;;;;;;;4.93;1.25;;;;;;;-147.53;100.00;57128.34;10513451;28;20806;-80
2023/07/03 07:58:13;;;;;;;8.52;1.90;;;;;;;-147.53;100.00;57128.34;10493084;28;20087;-81
2023/07/03 08:03:15;;;;;;;4.82;1.30;;;;;;;-147.53;100.00;57128.34;10509913;28;20048;-81
2023/07/03 08:08:16;;;;;;;6.32;1.27;;;;;;;-147.53;100.00;57128.34;10492200;28;20071;-80
2023/07/03 08:13:18;;;;;;;7.07;1.17;;;;;;;-147.53;100.00;57128.34;10496608;28;20072;-82
2023/07/03 08:18:21;;;;;;;6.97;1.00;;;;;;;-147.53;100.00;57128.34;10502464;28;20040;-80
2023/07/03 08:23:23;;;;;;;4.72;0.95;;;;;;;-147.53;100.00;57128.34;10492146;28;20079;-82
2023/07/03 08:28:24;;;;;;;13.38;1.25;;;;;;;-147.53;100.00;57128.34;10501240;28;20040;-82
2023/07/03 08:33:26;;;;;;;5.78;1.08;;;;;;;-147.53;100.00;57128.34;10503825;28;20045;-79
2023/07/03 08:38:28;;;;;;;4.40;1.10;;;;;;;-147.53;100.00;57128.34;10507769;28;20541;-81
2023/07/03 08:43:35;;;;;;;4.40;1.00;;;;;;;-147.53;100.00;57128.34;10513891;28;20429;-81
2023/07/03 08:48:39;;;;;;;5.97;1.20;;;;;;;-147.53;100.00;57128.34;10506867;28;20563;-82
2023/07/03 08:53:44;;;;;;;2.60;0.82;;;;;;;-147.53;100.00;57128.34;10511463;28;20052;-82
2023/07/03 08:58:49;;;;;;;1.95;0.98;;;;;;;-147.53;100.00;57128.34;10507960;28;20036;-81
2023/07/03 09:04:20;;;;;;;8.35;0.90;;;;;;;-147.53;100.00;57128.34;10516083;28;20044;-81
2023/07/03 09:09:36;;;;;;;3.17;0.90;;;;;;;-147.53;100.00;57128.34;10492062;28;20137;-80
2023/07/03 09:14:47;;;;;;;2.22;1.00;;;;;;;-147.53;100.00;57128.34;10513403;28;20044;-80
2023/07/03 09:19:51;;;;;;;7.55;1.13;;;;;;;-147.53;100.00;57128.34;10523101;28;20055;-81
2023/07/03 09:24:58;;;;;;;4.35;1.00;;;;;;;-147.53;100.00;57128.34;10518213;28;20079;-82
2023/07/03 09:30:02;;;;;;;10.40;1.42;;;;;;;-147.53;100.00;57128.34;10517341;28;20036;-82
2023/07/03 09:35:11;;;;;;;9.43;1.05;;;;;;;-147.53;100.00;57128.34;10510105;28;20044;-82
2023/07/03 09:40:25;;;;;;;5.72;1.17;;;;;;;-147.53;100.00;57128.34;10481903;28;20045;-81
2023/07/03 09:45:34;;;;;;;4.28;1.10;;;;;;;-147.53;100.00;57128.34;10483152;28;20051;-82
2023/07/03 09:50:38;;;;;;;2.28;1.02;;;;;;;-147.53;100.00;57128.34;10503861;28;20525;-82
2023/07/03 09:55:54;;;;;;;7.50;1.52;;;;;;;-147.53;100.00;57128.34;10519517;28;20036;-82
2023/07/03 10:00:58;;;;;;;6.03;1.25;;;;;;;-147.53;100.00;57128.34;10503571;28;20074;-80
2023/07/03 10:06:14;;;;;;;2.08;0.90;;;;;;;-147.53;100.00;57128.34;10521912;28;20051;-81
2023/07/03 10:11:25;;;;;;;2.28;0.98;;;;;;;-147.53;100.00;57128.34;10500792;28;20087;-79
2023/07/03 10:16:30;;;;;;;3.55;1.10;;;;;;;-147.53;100.00;57128.34;10513581;28;20048;-80
2023/07/03 10:21:33;;;;;;;2.03;0.70;;;;;;;-147.53;100.00;57128.34;10519129;28;20040;-79
2023/07/03 10:26:47;;;;;;;5.28;1.23;;;;;;;-147.53;100.00;57128.34;10525087;28;20047;-80
2023/07/03 10:32:01;;;;;;;2.20;0.68;;;;;;;-147.53;100.00;57128.34;10524065;28;20045;-79
2023/07/03 10:37:05;;;;;;;1.38;0.70;;;;;;;-147.53;100.00;57128.34;10504546;28;20036;-81
2023/07/03 10:42:17;;;;;;;5.30;1.08;;;;;;;-147.53;100.00;57128.34;10513605;28;20051;-80
2023/07/03 10:47:28;;;;;;;1.55;0.40;;;;;;;-147.53;100.00;57128.34;10517813;28;20040;-81
2023/07/03 10:52:43;;;;;;;0.50;0.43;;;;;;;-147.53;100.00;57128.34;10522242;28;20130;-82
2023/07/03 10:57:51;;;;;;;1.15;0.43;;;;;;;-147.53;100.00;57128.34;10519126;28;20070;-81
2023/07/03 11:03:11;;;;;;;2.97;0.80;;;;;;;-147.53;100.00;57128.34;10517636;28;20040;-80
2023/07/03 11:08:29;;;;;;;0.85;0.60;;;;;;;-147.53;100.00;57128.34;10497400;28;20140;-80
2023/07/03 11:13:51;;;;;;;1.67;0.98;;;;;;;-147.53;100.00;57128.34;10517688;28;20036;-79
2023/07/03 11:18:53;;;;;;;1.83;0.68;;;;;;;-147.53;100.00;57128.34;10520074;28;20526;-81
2023/07/03 11:24:22;;;;;;;0.75;0.65;;;;;;;-147.53;100.00;57128.34;10525766;28;20539;-80
2023/07/03 11:29:25;;;;;;;2.22;0.77;;;;;;;-147.53;100.00;57128.34;10506188;28;20044;-81
2023/07/03 11:34:27;;;;;;;2.35;0.60;;;;;;;-147.53;100.00;57128.34;10521912;28;20045;-80
2023/07/03 11:39:33;;;;;;;5.03;0.90;;;;;;;-147.53;100.00;57128.34;10532212;28;20366;-79
2023/07/03 11:44:40;;;;;;;4.25;1.05;;;;;;;-147.53;100.00;57128.34;10526869;28;20051;-81
2023/07/03 11:49:53;;;;;;;3.10;0.80;;;;;;;-147.53;100.00;57128.34;10494251;28;20085;-81
2023/07/03 11:55:06;;;;;;;4.30;1.10;;;;;;;-147.53;100.00;57128.34;10512668;28;20040;-81
2023/07/03 12:00:25;;;;;;;6.28;1.25;;;;;;;-147.53;100.00;57128.34;10512045;28;20453;-79
2023/07/03 12:05:42;;;;;;;5.45;1.25;;;;;;;-147.53;100.00;57128.34;10506931;28;20058;-80
2023/07/03 12:10:57;;;;;;;2.92;0.95;;;;;;;-147.53;100.00;57128.34;10530484;28;20052;-80
2023/07/03 12:16:02;;;;;;;2.58;0.73;;;;;;;-147.53;100.00;57128.34;10532311;28;20066;-81
2023/07/03 12:21:05;;;;;;;3.42;0.68;;;;;;;-147.53;100.00;57128.34;10516684;28;20127;-80
2023/07/03 12:26:12;;;;;;;9.40;1.20;;;;;;;-147.53;100.00;57128.34;10525061;28;20399;-81
2023/07/03 12:31:18;;;;;;;2.50;0.88;;;;;;;-147.53;100.00;57128.34;10532814;28;20044;-81
2023/07/03 12:36:47;;;;;;;2.92;1.23;;;;;;;-147.53;100.00;57128.34;10533027;28;20520;-82
2023/07/03 12:42:11;;;;;;;6.90;1.10;;;;;;;-147.53;100.00;57128.34;10514283;28;20102;-78
2023/07/03 12:47:16;;;;;;;2.17;0.57;;;;;;;-147.53;100.00;57128.34;10514908;28;20051;-78
2023/07/03 12:52:18;;;;;;;4.10;0.88;;;;;;;-147.53;100.00;57128.34;10520033;28;20036;-79
2023/07/03 12:57:21;;;;;;;3.70;1.17;;;;;;;-147.53;100.00;57128.34;10518157;28;20129;-79
2023/07/03 13:02:28;;;;;;;6.65;1.10;;;;;;;-147.53;100.00;57128.34;10516045;28;20075;-79
2023/07/03 13:07:30;;;;;;;3.95;0.90;;;;;;;-147.53;100.00;57128.34;10516102;28;20054;-79
2023/07/03 13:12:34;;;;;;;1.05;0.57;;;;;;;-147.53;100.00;57128.34;10519497;28;20058;-79
2023/07/03 13:17:41;;;;;;;3.30;0.85;;;;;;;-147.53;100.00;57128.34;10494362;28;20032;-79
2023/07/03 13:22:45;;;;;;;2.50;0.77;;;;;;;-147.53;100.00;57128.34;10490197;28;20048;-79
2023/07/03 13:27:48;;;;;;;1.58;0.55;;;;;;;-147.53;100.00;57128.34;10519044;28;20047;-81
2023/07/03 13:33:00;;;;;;;3.13;0.65;;;;;;;-147.53;100.00;57128.34;10522025;28;20091;-79
2023/07/03 13:38:30;;;;;;;1.83;0.50;;;;;;;-147.53;100.00;57128.34;10527145;28;20036;-80
2023/07/03 13:43:32;;;;;;;4.15;0.80;;;;;;;-147.53;100.00;57128.34;10515633;28;20047;-84
2023/07/03 13:48:33;;;;;;;3.28;0.90;;;;;;;-147.53;100.00;57128.34;10530156;28;20241;-83
2023/07/03 13:53:35;;;;;;;4.05;0.90;;;;;;;-147.53;100.00;57128.34;10525655;28;20055;-78
2023/07/03 13:58:36;;;;;;;3.38;0.60;;;;;;;-147.53;100.00;57128.34;10523931;28;20067;-78
2023/07/03 14:03:39;;;;;;;2.28;0.60;;;;;;;-147.53;100.00;57128.34;10514807;28;20068;-81
2023/07/03 14:08:43;;;;;;;3.13;1.00;;;;;;;-147.53;100.00;57128.34;10516971;28;20040;-81
2023/07/03 14:13:45;;;;;;;2.88;0.98;;;;;;;-147.53;100.00;57128.34;10502195;28;20040;-81
2023/07/03 14:18:47;;;;;;;5.47;0.90;;;;;;;-147.53;100.00;57128.34;10497668;28;20047;-83
2023/07/03 14:23:49;;;;;;;5.40;1.20;;;;;;;-147.53;100.00;57128.34;10507360;28;20104;-85
2023/07/03 14:28:51;;;;;;;3.13;0.85;;;;;;;-147.53;100.00;57128.34;10514221;28;20070;-80
2023/07/03 14:33:54;;;;;;;4.65;1.15;;;;;;;-147.53;100.00;57128.34;10512304;28;20568;-77
2023/07/03 14:38:55;;;;;;;2.65;0.90;;;;;;;-147.53;100.00;57128.34;10512063;28;20140;-82
2023/07/03 14:43:57;;;;;;;3.17;0.80;;;;;;;-147.53;100.00;57128.34;10508574;28;20094;-78
2023/07/03 14:48:58;;;;;;;5.82;1.10;;;;;;;-147.53;100.00;57128.34;10493587;28;20043;-83
2023/07/03 14:54:00;;;;;;;5.93;1.30;;;;;;;-147.53;100.00;57128.34;10521846;28;20110;-83
2023/07/03 14:59:02;;;;;;;5.57;1.40;;;;;;;-147.53;100.00;57128.34;10520843;28;20048;-83
2023/07/03 15:04:05;;;;;;;4.97;0.98;;;;;;;-147.53;100.00;57128.34;10504477;28;20052;-84
2023/07/03 15:09:08;;;;;;;5.75;1.30;;;;;;;-147.53;100.00;57128.34;10500368;28;20041;-82
2023/07/03 15:14:10;;;;;;;4.85;1.15;;;;;;;-147.53;100.00;57128.34;10503117;28;20053;-82
2023/07/03 15:19:12;;;;;;;2.88;0.98;;;;;;;-147.53;100.00;57128.34;10525906;28;20041;-82
2023/07/03 15:24:14;;;;;;;11.57;1.40;;;;;;;-147.53;100.00;57128.34;10524327;28;20667;-82
2023/07/03 15:29:16;;;;;;;3.35;0.80;;;;;;;-147.53;100.00;57128.34;10515320;28;20060;-82
2023/07/03 15:34:19;;;;;;;2.53;0.80;;;;;;;-147.53;100.00;57128.34;10530531;28;20502;-82
2023/07/03 15:39:23;;;;;;;7.40;1.52;;;;;;;-147.53;100.00;57128.34;10495732;28;20072;-82
2023/07/03 15:44:25;;;;;;;3.00;0.80;;;;;;;-147.53;100.00;57128.34;10505551;28;20059;-82
2023/07/03 15:49:27;;;;;;;2.85;1.13;;;;;;;-147.53;100.00;57128.34;10511073;28;20464;-84
2023/07/03 15:54:33;;;;;;;5.65;1.50;;;;;;;-147.53;100.00;57128.34;10508821;28;20081;-81
2023/07/03 15:59:40;;;;;;;4.60;1.15;;;;;;;-147.53;100.00;57128.34;10495190;28;20041;-83
2023/07/03 16:04:42;;;;;;;6.85;0.98;;;;;;;-147.53;100.00;57128.34;10499072;28;20064;-81
2023/07/03 16:09:44;;;;;;;2.17;0.80;;;;;;;-147.53;100.00;57128.34;10527717;28;20127;-82
2023/07/03 16:14:47;;;;;;;6.53;1.08;;;;;;;-147.53;100.00;57128.34;10543782;28;20047;-81
2023/07/03 16:20:05;;;;;;;1.25;0.52;;;;;;;-147.53;100.00;57128.34;10524587;28;20050;-82
2023/07/03 16:25:11;;;;;;;3.83;1.05;;;;;;;-147.53;100.00;57128.34;10499064;28;20140;-81
2023/07/03 16:30:13;;;;;;;5.68;1.10;;;;;;;-147.53;100.00;57128.34;10501761;28;20036;-82
2023/07/03 16:35:16;;;;;;;3.85;1.63;;;;;;;-147.53;100.00;57128.34;10510805;28;20123;-83
2023/07/03 16:40:18;;;;;;;6.93;1.17;;;;;;;-147.53;100.00;57128.34;10504017;28;20044;-82
2023/07/03 16:45:19;;;;;;;5.55;1.17;;;;;;;-147.53;100.00;57128.34;10498963;28;20036;-81
2023/07/03 16:50:21;;;;;;;2.30;0.70;;;;;;;-147.53;100.00;57128.34;10508108;28;20051;-80
2023/07/03 16:55:23;;;;;;;2.45;0.70;;;;;;;-147.53;100.00;57128.34;10510551;28;20045;-81
2023/07/03 17:00:25;;;;;;;3.58;1.00;;;;;;;-147.53;100.00;57128.34;10517389;28;20483;-84
2023/07/03 17:05:26;;;;;;;2.70;0.70;;;;;;;-147.53;100.00;57128.34;10503925;28;20048;-81
2023/07/03 17:10:28;;;;;;;4.63;0.98;;;;;;;-147.53;100.00;57128.34;10514020;28;20128;-81
2023/07/03 17:15:31;;;;;;;2.13;0.50;;;;;;;-147.53;100.00;57128.34;10527016;28;20066;-81
2023/07/03 17:20:32;;;;;;;0.85;0.50;;;;;;;-147.53;100.00;57128.34;10528389;28;20044;-82
2023/07/03 17:25:34;;;;;;;0.73;0.50;;;;;;;-147.53;100.00;57128.34;10533185;28;20594;-82
2023/07/03 17:30:39;;;;;;;3.25;1.20;;;;;;;-147.53;100.00;57128.34;10513968;28;20052;-82
2023/07/03 17:35:44;;;;;;;2.08;0.60;;;;;;;-147.53;100.00;57128.34;10526922;28;20050;-82
2023/07/03 17:40:47;;;;;;;2.00;0.57;;;;;;;-147.53;100.00;57128.34;10508914;28;20074;-82
2023/07/03 17:45:51;;;;;;;3.40;0.68;;;;;;;-147.53;100.00;57128.34;10521534;28;20108;-82
2023/07/03 17:50:55;;;;;;;3.80;1.00;;;;;;;-147.53;100.00;57128.34;10518496;28;20072;-82
2023/07/03 17:55:57;;;;;;;3.00;1.10;;;;;;;-147.53;100.00;57128.34;10522003;28;20048;-82
2023/07/03 18:01:01;;;;;;;2.60;0.85;;;;;;;-147.53;100.00;57128.34;10518781;28;20672;-82
2023/07/03 18:06:04;;;;;;;5.68;1.00;;;;;;;-147.53;100.00;57128.34;10501784;28;20068;-83
2023/07/03 18:11:06;;;;;;;4.40;0.95;;;;;;;-147.53;100.00;57128.34;10499659;28;20099;-83
2023/07/03 18:16:08;;;;;;;3.50;0.95;;;;;;;-147.53;100.00;57128.34;10507405;28;20052;-82
2023/07/03 18:21:10;;;;;;;4.45;0.80;;;;;;;-147.53;100.00;57128.34;10509173;28;20071;-81
2023/07/03 18:26:15;;;;;;;6.93;1.00;;;;;;;-147.53;100.00;57128.34;10509582;28;20077;-83
2023/07/03 18:31:17;;;;;;;3.17;0.93;;;;;;;-147.53;100.00;57128.34;10509566;28;20044;-80
2023/07/03 18:36:19;;;;;;;1.75;0.77;;;;;;;-147.53;100.00;57128.34;10522826;28;20097;-82
2023/07/03 18:41:21;;;;;;;7.88;1.75;;;;;;;-147.53;100.00;57128.34;10498912;28;20121;-82
2023/07/03 18:46:23;;;;;;;4.20;0.85;;;;;;;-147.53;100.00;57128.34;10525285;28;20075;-82
2023/07/03 18:51:25;;;;;;;9.68;1.33;;;;;;;-147.53;100.00;57128.34;10529983;28;20514;-82
2023/07/03 18:56:27;;;;;;;8.73;1.17;;;;;;;-147.53;100.00;57128.34;10528277;28;20080;-82
2023/07/03 19:01:30;;;;;;;0.93;0.68;;;;;;;-147.53;100.00;57128.34;10515025;28;20110;-81
2023/07/03 19:06:32;;;;;;;5.07;0.90;;;;;;;-147.53;100.00;57128.34;10498050;28;20044;-81
2023/07/03 19:11:34;;;;;;;2.20;0.80;;;;;;;-147.53;100.00;57128.34;10519082;28;20533;-82
2023/07/03 19:16:37;;;;;;;7.00;1.05;;;;;;;-147.53;100.00;57128.34;10529825;28;20098;-82
2023/07/03 19:21:39;;;;;;;7.15;1.38;;;;;;;-147.53;100.00;57128.34;10505640;28;20071;-81
2023/07/03 19:26:40;;;;;;;5.03;0.80;;;;;;;-147.53;100.00;57128.34;10494226;28;20052;-82
2023/07/03 19:31:42;;;;;;;2.70;0.75;;;;;;;-147.53;100.00;57128.34;10523701;28;20105;-81
2023/07/03 19:36:44;;;;;;;5.60;1.50;;;;;;;-147.53;100.00;57128.34;10532530;28;20052;-81
2023/07/03 19:41:46;;;;;;;5.22;1.75;;;;;;;-147.53;100.00;57128.34;10535741;28;20059;-82
2023/07/03 19:46:47;;;;;;;3.22;1.00;;;;;;;-147.53;100.00;57128.34;10505360;28;20045;-82
2023/07/03 19:51:49;;;;;;;5.80;1.17;;;;;;;-147.53;100.00;57128.34;10525374;28;20542;-82
2023/07/03 19:56:51;;;;;;;5.80;1.20;;;;;;;-147.53;100.00;57128.34;10520943;28;20044;-82
2023/07/03 20:01:53;;;;;;;12.45;1.50;;;;;;;-147.53;100.00;57128.34;10512478;28;20040;-82
2023/07/03 20:06:54;;;;;;;2.40;0.85;;;;;;;-147.53;100.00;57128.34;10520682;28;20040;-82
2023/07/03 20:11:56;;;;;;;6.88;1.45;;;;;;;-147.53;100.00;57128.34;10498764;28;20450;-82
2023/07/03 20:16:58;;;;;;;3.63;1.13;;;;;;;-147.53;100.00;57128.34;10497379;28;20047;-82
2023/07/03 20:22:00;;;;;;;6.65;1.27;;;;;;;-147.53;100.00;57128.34;10512070;28;20048;-82
2023/07/03 20:27:02;;;;;;;6.53;1.10;;;;;;;-147.53;100.00;57128.34;10500260;28;20047;-83
2023/07/03 20:32:05;;;;;;;3.47;1.33;;;;;;;-147.53;100.00;57128.34;10539564;28;20043;-81
2023/07/03 20:37:08;;;;;;;8.07;1.92;;;;;;;-147.53;100.00;57128.34;10524420;28;20494;-83
2023/07/03 20:42:10;;;;;;;3.20;1.17;;;;;;;-147.53;100.00;57128.34;10505591;28;20052;-82
2023/07/03 20:47:12;;;;;;;7.82;1.08;;;;;;;-147.53;100.00;57128.34;10532643;28;20040;-83
2023/07/03 20:52:19;;;;;;;6.93;1.05;;;;;;;-147.53;100.00;57128.34;10523950;28;20052;-82
2023/07/03 20:57:20;;;;;;;3.67;1.38;;;;;;;-147.53;100.00;57128.34;10543181;28;20060;-82
2023/07/03 21:02:22;;;;;;;2.00;1.42;;;;;;;-147.53;100.00;57128.34;10524627;28;20051;-82
2023/07/03 21:07:24;;;;;;;4.38;1.27;;;;;;;-147.53;100.00;57128.34;10537930;28;20044;-81
2023/07/03 21:12:29;;;;;;;6.45;1.27;;;;;;;-147.53;100.00;57128.34;10498805;28;20059;-82
2023/07/03 21:17:30;;;;;;;4.47;1.30;;;;;;;-147.53;100.00;57128.34;10514952;28;20075;-81
2023/07/03 21:22:32;;;;;;;3.53;1.42;;;;;;;-147.53;100.00;57128.34;10553178;28;20036;-82
2023/07/03 21:27:46;;;;;;;4.03;1.25;;;;;;;-147.53;100.00;57128.34;10538501;28;20055;-82
2023/07/03 21:32:50;;;;;;;4.32;1.52;;;;;;;-147.53;100.00;57128.34;10540922;28;20048;-81
2023/07/03 21:38:00;;;;;;;7.85;1.70;;;;;;;-147.53;100.00;57128.34;10516118;28;20064;-82
2023/07/03 21:43:28;;;;;;;7.97;1.58;;;;;;;-147.53;100.00;57128.34;10504399;28;20071;-83
2023/07/03 21:48:48;;;;;;;4.67;1.53;;;;;;;-147.53;100.00;57128.34;10490679;28;20041;-83
2023/07/03 21:53:58;;;;;;;4.72;1.75;;;;;;;-147.53;100.00;57128.34;10507850;28;20059;-82
2023/07/03 21:59:14;;;;;;;6.40;1.60;;;;;;;-147.53;100.00;57128.34;10511999;28;20044;-83
2023/07/03 22:04:28;;;;;;;3.70;1.35;;;;;;;-147.53;100.00;57128.34;10468391;28;20075;-82
2023/07/03 22:09:30;;;;;;;6.55;1.55;;;;;;;-147.53;100.00;57128.34;10502101;28;20036;-84
2023/07/03 22:14:42;;;;;;;4.57;1.42;;;;;;;-147.53;100.00;57128.34;10465132;28;20507;-83
2023/07/03 22:19:44;;;;;;;5.85;1.20;;;;;;;-147.53;100.00;57128.34;10489398;28;20051;-84
2023/07/03 22:24:45;;;;;;;4.65;1.50;;;;;;;-147.53;100.00;57128.34;10486055;28;20056;-83
2023/07/03 22:29:48;;;;;;;4.28;1.30;;;;;;;-147.53;100.00;57128.34;10466068;28;20037;-84
2023/07/03 22:34:53;;;;;;;7.63;1.60;;;;;;;-147.53;100.00;57128.34;10483695;28;20082;-84
2023/07/03 22:39:55;;;;;;;4.32;1.25;;;;;;;-147.53;100.00;57128.34;10466358;28;20041;-83
2023/07/03 22:44:57;;;;;;;2.05;0.90;;;;;;;-147.53;100.00;57128.34;10465835;28;20048;-83
2023/07/03 22:50:00;;;;;;;1.30;0.68;;;;;;;-147.53;100.00;57128.34;10483189;28;20675;-84